sensor_id;sensor_type;location;lat;lon;timestamp;temperature;humidity
10062;DHT22;5070;52.382;5.270;2023-04-06T00:00:55;18.10;58.30
10062;DHT22;5070;52.382;5.270;2023-04-06T00:03:24;18.10;58.20
10062;DHT22;5070;52.382;5.270;2023-04-06T00:05:52;18.10;58.10
10062;DHT22;5070;52.382;5.270;2023-04-06T00:08:20;18.10;58.10
10062;DHT22;5070;52.382;5.270;2023-04-06T00:10:50;18.00;58.10
10062;DHT22;5070;52.382;5.270;2023-04-06T00:13:19;18.00;58.10
10062;DHT22;5070;52.382;5.270;2023-04-06T00:15:47;18.00;58.00
10062;DHT22;5070;52.382;5.270;2023-04-06T00:18:15;18.00;58.00
10062;DHT22;5070;52.382;5.270;2023-04-06T00:20:43;18.00;58.00
10062;DHT22;5070;52.382;5.270;2023-04-06T00:23:11;18.00;57.90
10062;DHT22;5070;52.382;5.270;2023-04-06T00:25:38;17.90;57.90
10062;DHT22;5070;52.382;5.270;2023-04-06T00:28:06;17.90;57.70
10062;DHT22;5070;52.382;5.270;2023-04-06T00:30:36;17.90;57.90
10062;DHT22;5070;52.382;5.270;2023-04-06T00:33:07;17.90;57.90
10062;DHT22;5070;52.382;5.270;2023-04-06T00:35:35;17.90;57.70
10062;DHT22;5070;52.382;5.270;2023-04-06T00:38:03;17.90;57.80
10062;DHT22;5070;52.382;5.270;2023-04-06T00:40:31;17.90;57.70
10062;DHT22;5070;52.382;5.270;2023-04-06T00:42:59;17.90;57.70
10062;DHT22;5070;52.382;5.270;2023-04-06T00:45:30;17.80;57.50
10062;DHT22;5070;52.382;5.270;2023-04-06T00:47:59;17.90;57.60
10062;DHT22;5070;52.382;5.270;2023-04-06T00:50:30;17.80;57.50
10062;DHT22;5070;52.382;5.270;2023-04-06T00:53:01;17.80;57.50
10062;DHT22;5070;52.382;5.270;2023-04-06T00:55:30;17.80;58.00
10062;DHT22;5070;52.382;5.270;2023-04-06T00:57:59;17.80;57.60
10062;DHT22;5070;52.382;5.270;2023-04-06T01:00:34;17.80;57.30
10062;DHT22;5070;52.382;5.270;2023-04-06T01:03:03;17.80;57.20
10062;DHT22;5070;52.382;5.270;2023-04-06T01:05:39;17.80;57.30
10062;DHT22;5070;52.382;5.270;2023-04-06T01:08:17;17.80;57.30
10062;DHT22;5070;52.382;5.270;2023-04-06T01:10:45;17.80;57.30
10062;DHT22;5070;52.382;5.270;2023-04-06T01:13:25;17.80;57.20
10062;DHT22;5070;52.382;5.270;2023-04-06T01:15:59;17.70;57.10
10062;DHT22;5070;52.382;5.270;2023-04-06T01:18:48;17.70;57.20
10062;DHT22;5070;52.382;5.270;2023-04-06T01:21:21;17.70;57.10
10062;DHT22;5070;52.382;5.270;2023-04-06T01:24:03;17.70;57.10
10062;DHT22;5070;52.382;5.270;2023-04-06T01:26:46;17.70;57.00
10062;DHT22;5070;52.382;5.270;2023-04-06T01:29:14;17.70;57.00
10062;DHT22;5070;52.382;5.270;2023-04-06T01:31:45;17.70;57.00
10062;DHT22;5070;52.382;5.270;2023-04-06T01:34:14;17.70;56.90
10062;DHT22;5070;52.382;5.270;2023-04-06T01:36:43;17.60;56.90
10062;DHT22;5070;52.382;5.270;2023-04-06T01:39:26;17.60;56.80
10062;DHT22;5070;52.382;5.270;2023-04-06T01:41:54;17.60;56.70
10062;DHT22;5070;52.382;5.270;2023-04-06T01:44:26;17.60;56.70
10062;DHT22;5070;52.382;5.270;2023-04-06T01:47:04;17.60;56.60
10062;DHT22;5070;52.382;5.270;2023-04-06T01:49:32;17.60;56.70
10062;DHT22;5070;52.382;5.270;2023-04-06T01:52:01;17.60;56.90
10062;DHT22;5070;52.382;5.270;2023-04-06T01:54:31;17.60;56.80
10062;DHT22;5070;52.382;5.270;2023-04-06T01:57:19;17.60;56.60
10062;DHT22;5070;52.382;5.270;2023-04-06T01:59:53;17.60;56.50
10062;DHT22;5070;52.382;5.270;2023-04-06T02:02:39;17.50;56.40
10062;DHT22;5070;52.382;5.270;2023-04-06T02:05:14;17.50;56.60
10062;DHT22;5070;52.382;5.270;2023-04-06T02:07:42;17.50;56.50
10062;DHT22;5070;52.382;5.270;2023-04-06T02:10:15;17.50;56.40
10062;DHT22;5070;52.382;5.270;2023-04-06T02:12:44;17.50;56.50
10062;DHT22;5070;52.382;5.270;2023-04-06T02:15:19;17.50;56.40
10062;DHT22;5070;52.382;5.270;2023-04-06T02:17:47;17.60;56.20
10062;DHT22;5070;52.382;5.270;2023-04-06T02:20:15;17.60;56.30
10062;DHT22;5070;52.382;5.270;2023-04-06T02:22:43;17.60;56.30
10062;DHT22;5070;52.382;5.270;2023-04-06T02:25:11;17.60;56.30
10062;DHT22;5070;52.382;5.270;2023-04-06T02:27:44;17.60;56.30
10062;DHT22;5070;52.382;5.270;2023-04-06T02:30:12;17.60;56.10
10062;DHT22;5070;52.382;5.270;2023-04-06T02:32:40;17.60;56.00
10062;DHT22;5070;52.382;5.270;2023-04-06T02:35:09;17.70;56.00
10062;DHT22;5070;52.382;5.270;2023-04-06T02:37:45;17.70;56.00
10062;DHT22;5070;52.382;5.270;2023-04-06T02:40:13;17.70;55.90
10062;DHT22;5070;52.382;5.270;2023-04-06T02:42:46;17.70;55.80
10062;DHT22;5070;52.382;5.270;2023-04-06T02:45:16;17.70;55.70
10062;DHT22;5070;52.382;5.270;2023-04-06T02:47:46;17.70;55.90
10062;DHT22;5070;52.382;5.270;2023-04-06T02:50:16;17.70;55.80
10062;DHT22;5070;52.382;5.270;2023-04-06T02:52:52;17.70;56.00
10062;DHT22;5070;52.382;5.270;2023-04-06T02:55:21;17.70;55.90
10062;DHT22;5070;52.382;5.270;2023-04-06T02:57:50;17.70;55.90
10062;DHT22;5070;52.382;5.270;2023-04-06T03:00:22;17.70;56.00
10062;DHT22;5070;52.382;5.270;2023-04-06T03:02:50;17.70;56.10
10062;DHT22;5070;52.382;5.270;2023-04-06T03:05:20;17.70;56.00
10062;DHT22;5070;52.382;5.270;2023-04-06T03:07:49;17.70;56.00
10062;DHT22;5070;52.382;5.270;2023-04-06T03:10:25;17.70;56.20
10062;DHT22;5070;52.382;5.270;2023-04-06T03:12:54;17.70;56.10
10062;DHT22;5070;52.382;5.270;2023-04-06T03:15:29;17.60;56.00
10062;DHT22;5070;52.382;5.270;2023-04-06T03:18:09;17.60;56.00
10062;DHT22;5070;52.382;5.270;2023-04-06T03:20:42;17.60;56.00
10062;DHT22;5070;52.382;5.270;2023-04-06T03:23:12;17.60;56.00
10062;DHT22;5070;52.382;5.270;2023-04-06T03:25:42;17.60;55.90
10062;DHT22;5070;52.382;5.270;2023-04-06T03:28:15;17.60;56.00
10062;DHT22;5070;52.382;5.270;2023-04-06T03:30:56;17.60;55.80
10062;DHT22;5070;52.382;5.270;2023-04-06T03:33:42;17.60;56.00
10062;DHT22;5070;52.382;5.270;2023-04-06T03:36:16;17.60;56.00
10062;DHT22;5070;52.382;5.270;2023-04-06T03:38:44;17.60;55.80
10062;DHT22;5070;52.382;5.270;2023-04-06T03:41:13;17.60;55.90
10062;DHT22;5070;52.382;5.270;2023-04-06T03:43:53;17.60;55.90
10062;DHT22;5070;52.382;5.270;2023-04-06T03:46:22;17.50;55.80
10062;DHT22;5070;52.382;5.270;2023-04-06T03:48:53;17.50;55.90
10062;DHT22;5070;52.382;5.270;2023-04-06T03:51:23;17.50;55.70
10062;DHT22;5070;52.382;5.270;2023-04-06T03:53:51;17.60;55.80
10062;DHT22;5070;52.382;5.270;2023-04-06T03:56:20;17.60;55.60
10062;DHT22;5070;52.382;5.270;2023-04-06T03:58:49;17.60;55.60
10062;DHT22;5070;52.382;5.270;2023-04-06T04:01:21;17.60;55.60
10062;DHT22;5070;52.382;5.270;2023-04-06T04:03:49;17.60;55.50
10062;DHT22;5070;52.382;5.270;2023-04-06T04:06:18;17.60;55.30
10062;DHT22;5070;52.382;5.270;2023-04-06T04:08:46;17.60;55.30
10062;DHT22;5070;52.382;5.270;2023-04-06T04:11:14;17.60;55.30
10062;DHT22;5070;52.382;5.270;2023-04-06T04:13:46;17.60;55.20
10062;DHT22;5070;52.382;5.270;2023-04-06T04:16:15;17.70;55.10
10062;DHT22;5070;52.382;5.270;2023-04-06T04:18:44;17.70;55.30
10062;DHT22;5070;52.382;5.270;2023-04-06T04:21:13;17.70;55.30
10062;DHT22;5070;52.382;5.270;2023-04-06T04:23:41;17.70;55.10
10062;DHT22;5070;52.382;5.270;2023-04-06T04:26:09;17.70;55.10
10062;DHT22;5070;52.382;5.270;2023-04-06T04:28:38;17.70;55.00
10062;DHT22;5070;52.382;5.270;2023-04-06T04:31:06;17.70;55.10
10062;DHT22;5070;52.382;5.270;2023-04-06T04:33:34;17.70;55.10
10062;DHT22;5070;52.382;5.270;2023-04-06T04:36:09;17.70;55.10
10062;DHT22;5070;52.382;5.270;2023-04-06T04:38:41;17.60;55.10
10062;DHT22;5070;52.382;5.270;2023-04-06T04:41:10;17.60;55.20
10062;DHT22;5070;52.382;5.270;2023-04-06T04:43:41;17.60;55.20
10062;DHT22;5070;52.382;5.270;2023-04-06T04:46:11;17.60;55.70
10062;DHT22;5070;52.382;5.270;2023-04-06T04:48:41;17.60;55.50
10062;DHT22;5070;52.382;5.270;2023-04-06T04:51:11;17.60;55.40
10062;DHT22;5070;52.382;5.270;2023-04-06T04:54:00;17.60;55.30
10062;DHT22;5070;52.382;5.270;2023-04-06T04:56:31;17.60;55.30
10062;DHT22;5070;52.382;5.270;2023-04-06T04:59:25;17.60;55.50
10062;DHT22;5070;52.382;5.270;2023-04-06T05:01:58;17.60;55.30
10062;DHT22;5070;52.382;5.270;2023-04-06T05:04:36;17.60;55.30
10062;DHT22;5070;52.382;5.270;2023-04-06T05:07:09;17.50;55.40
10062;DHT22;5070;52.382;5.270;2023-04-06T05:09:39;17.50;55.40
10062;DHT22;5070;52.382;5.270;2023-04-06T05:12:08;17.50;55.50
10062;DHT22;5070;52.382;5.270;2023-04-06T05:14:45;17.50;55.40
10062;DHT22;5070;52.382;5.270;2023-04-06T05:17:18;17.50;55.40
10062;DHT22;5070;52.382;5.270;2023-04-06T05:19:46;17.50;55.40
10062;DHT22;5070;52.382;5.270;2023-04-06T05:22:22;17.50;55.40
10062;DHT22;5070;52.382;5.270;2023-04-06T05:25:01;17.50;55.40
10062;DHT22;5070;52.382;5.270;2023-04-06T05:27:31;17.50;55.40
10062;DHT22;5070;52.382;5.270;2023-04-06T05:30:05;17.50;55.40
10062;DHT22;5070;52.382;5.270;2023-04-06T05:32:43;17.50;55.40
10062;DHT22;5070;52.382;5.270;2023-04-06T05:35:13;17.50;55.40
10062;DHT22;5070;52.382;5.270;2023-04-06T05:37:47;17.50;55.40
10062;DHT22;5070;52.382;5.270;2023-04-06T05:40:15;17.50;55.50
10062;DHT22;5070;52.382;5.270;2023-04-06T05:42:55;17.50;55.40
10062;DHT22;5070;52.382;5.270;2023-04-06T05:45:24;17.50;55.40
10062;DHT22;5070;52.382;5.270;2023-04-06T05:47:55;17.50;55.20
10062;DHT22;5070;52.382;5.270;2023-04-06T05:50:26;17.50;55.30
10062;DHT22;5070;52.382;5.270;2023-04-06T05:53:00;17.50;55.20
10062;DHT22;5070;52.382;5.270;2023-04-06T05:55:35;17.60;55.20
10062;DHT22;5070;52.382;5.270;2023-04-06T05:58:11;17.60;55.30
10062;DHT22;5070;52.382;5.270;2023-04-06T06:00:39;17.60;55.40
10062;DHT22;5070;52.382;5.270;2023-04-06T06:03:09;17.60;55.40
10062;DHT22;5070;52.382;5.270;2023-04-06T06:05:40;17.60;55.20
10062;DHT22;5070;52.382;5.270;2023-04-06T06:08:16;17.60;55.20
10062;DHT22;5070;52.382;5.270;2023-04-06T06:10:49;17.60;55.00
10062;DHT22;5070;52.382;5.270;2023-04-06T06:13:21;17.60;55.20
10062;DHT22;5070;52.382;5.270;2023-04-06T06:15:50;17.70;55.10
10062;DHT22;5070;52.382;5.270;2023-04-06T06:18:24;17.70;55.30
10062;DHT22;5070;52.382;5.270;2023-04-06T06:20:55;17.70;55.30
10062;DHT22;5070;52.382;5.270;2023-04-06T06:23:29;17.70;55.50
10062;DHT22;5070;52.382;5.270;2023-04-06T06:25:57;17.70;55.90
10062;DHT22;5070;52.382;5.270;2023-04-06T06:28:26;17.70;56.10
10062;DHT22;5070;52.382;5.270;2023-04-06T06:30:55;17.70;56.00
10062;DHT22;5070;52.382;5.270;2023-04-06T06:33:24;17.80;56.40
10062;DHT22;5070;52.382;5.270;2023-04-06T06:35:54;17.80;56.30
10062;DHT22;5070;52.382;5.270;2023-04-06T06:38:22;17.80;56.50
10062;DHT22;5070;52.382;5.270;2023-04-06T06:40:52;17.80;56.70
10062;DHT22;5070;52.382;5.270;2023-04-06T06:43:23;17.80;57.00
10062;DHT22;5070;52.382;5.270;2023-04-06T06:45:58;17.80;56.90
10062;DHT22;5070;52.382;5.270;2023-04-06T06:48:26;17.90;58.40
10062;DHT22;5070;52.382;5.270;2023-04-06T06:50:54;17.90;57.80
10062;DHT22;5070;52.382;5.270;2023-04-06T06:53:23;17.90;57.80
10062;DHT22;5070;52.382;5.270;2023-04-06T06:55:52;17.90;58.10
10062;DHT22;5070;52.382;5.270;2023-04-06T06:58:20;17.90;58.00
10062;DHT22;5070;52.382;5.270;2023-04-06T07:00:48;18.00;58.40
10062;DHT22;5070;52.382;5.270;2023-04-06T07:03:17;18.00;58.10
10062;DHT22;5070;52.382;5.270;2023-04-06T07:05:45;18.00;59.30
10062;DHT22;5070;52.382;5.270;2023-04-06T07:08:20;18.00;59.40
10062;DHT22;5070;52.382;5.270;2023-04-06T07:10:49;18.00;59.10
10062;DHT22;5070;52.382;5.270;2023-04-06T07:13:20;18.00;59.10
10062;DHT22;5070;52.382;5.270;2023-04-06T07:15:54;18.00;59.10
10062;DHT22;5070;52.382;5.270;2023-04-06T07:18:22;18.10;59.10
10062;DHT22;5070;52.382;5.270;2023-04-06T07:20:50;18.10;59.00
10062;DHT22;5070;52.382;5.270;2023-04-06T07:23:19;18.10;58.30
10062;DHT22;5070;52.382;5.270;2023-04-06T07:25:48;18.10;58.10
10062;DHT22;5070;52.382;5.270;2023-04-06T07:28:21;18.10;57.90
10062;DHT22;5070;52.382;5.270;2023-04-06T07:30:49;18.10;58.10
10062;DHT22;5070;52.382;5.270;2023-04-06T07:33:18;18.10;58.30
10062;DHT22;5070;52.382;5.270;2023-04-06T07:35:48;18.10;58.30
10062;DHT22;5070;52.382;5.270;2023-04-06T07:38:18;18.10;58.50
10062;DHT22;5070;52.382;5.270;2023-04-06T07:40:46;18.10;58.60
10062;DHT22;5070;52.382;5.270;2023-04-06T07:43:17;18.10;58.90
10062;DHT22;5070;52.382;5.270;2023-04-06T07:45:47;18.10;59.00
10062;DHT22;5070;52.382;5.270;2023-04-06T07:48:16;18.10;59.00
10062;DHT22;5070;52.382;5.270;2023-04-06T07:50:44;18.20;59.20
10062;DHT22;5070;52.382;5.270;2023-04-06T07:53:15;18.20;58.90
10062;DHT22;5070;52.382;5.270;2023-04-06T07:55:45;18.20;58.90
10062;DHT22;5070;52.382;5.270;2023-04-06T07:58:15;18.20;59.40
10062;DHT22;5070;52.382;5.270;2023-04-06T08:00:43;18.20;59.60
10062;DHT22;5070;52.382;5.270;2023-04-06T08:03:13;18.20;59.00
10062;DHT22;5070;52.382;5.270;2023-04-06T08:05:41;18.20;59.00
10062;DHT22;5070;52.382;5.270;2023-04-06T08:08:16;18.20;58.50
10062;DHT22;5070;52.382;5.270;2023-04-06T08:10:45;18.20;58.50
10062;DHT22;5070;52.382;5.270;2023-04-06T08:13:12;18.30;58.80
10062;DHT22;5070;52.382;5.270;2023-04-06T08:15:42;18.30;59.00
10062;DHT22;5070;52.382;5.270;2023-04-06T08:18:10;18.30;59.20
10062;DHT22;5070;52.382;5.270;2023-04-06T08:20:40;18.30;59.70
10062;DHT22;5070;52.382;5.270;2023-04-06T08:23:08;18.30;59.60
10062;DHT22;5070;52.382;5.270;2023-04-06T08:25:38;18.30;62.40
10062;DHT22;5070;52.382;5.270;2023-04-06T08:28:06;18.30;61.70
10062;DHT22;5070;52.382;5.270;2023-04-06T08:30:36;18.30;61.80
10062;DHT22;5070;52.382;5.270;2023-04-06T08:33:04;18.30;62.00
10062;DHT22;5070;52.382;5.270;2023-04-06T08:35:36;18.30;63.20
10062;DHT22;5070;52.382;5.270;2023-04-06T08:38:06;18.30;63.60
10062;DHT22;5070;52.382;5.270;2023-04-06T08:40:36;18.30;64.90
10062;DHT22;5070;52.382;5.270;2023-04-06T08:43:06;18.30;63.20
10062;DHT22;5070;52.382;5.270;2023-04-06T08:45:38;18.30;63.40
10062;DHT22;5070;52.382;5.270;2023-04-06T08:48:07;18.30;64.60
10062;DHT22;5070;52.382;5.270;2023-04-06T08:50:37;18.30;65.30
10062;DHT22;5070;52.382;5.270;2023-04-06T08:53:09;18.30;65.30
10062;DHT22;5070;52.382;5.270;2023-04-06T08:55:38;18.30;66.10
10062;DHT22;5070;52.382;5.270;2023-04-06T08:58:08;18.30;66.10
10062;DHT22;5070;52.382;5.270;2023-04-06T09:00:38;18.30;66.90
10062;DHT22;5070;52.382;5.270;2023-04-06T09:03:07;18.30;66.30
10062;DHT22;5070;52.382;5.270;2023-04-06T09:05:36;18.30;66.60
10062;DHT22;5070;52.382;5.270;2023-04-06T09:08:10;18.30;67.70
10062;DHT22;5070;52.382;5.270;2023-04-06T09:10:43;18.30;67.40
10062;DHT22;5070;52.382;5.270;2023-04-06T09:13:12;18.30;66.10
10062;DHT22;5070;52.382;5.270;2023-04-06T09:15:40;18.30;66.80
10062;DHT22;5070;52.382;5.270;2023-04-06T09:18:08;18.30;67.30
10062;DHT22;5070;52.382;5.270;2023-04-06T09:20:36;18.30;66.90
10062;DHT22;5070;52.382;5.270;2023-04-06T09:23:04;18.30;67.50
10062;DHT22;5070;52.382;5.270;2023-04-06T09:25:33;18.30;65.30
10062;DHT22;5070;52.382;5.270;2023-04-06T09:28:03;18.30;67.00
10062;DHT22;5070;52.382;5.270;2023-04-06T09:30:33;18.20;61.60
10062;DHT22;5070;52.382;5.270;2023-04-06T09:33:02;18.20;64.80
10062;DHT22;5070;52.382;5.270;2023-04-06T09:35:30;18.20;67.20
10062;DHT22;5070;52.382;5.270;2023-04-06T09:38:09;18.20;67.40
10062;DHT22;5070;52.382;5.270;2023-04-06T09:40:49;18.30;66.60
10062;DHT22;5070;52.382;5.270;2023-04-06T09:43:29;18.30;68.60
10062;DHT22;5070;52.382;5.270;2023-04-06T09:45:58;18.30;67.50
10062;DHT22;5070;52.382;5.270;2023-04-06T09:48:31;18.30;68.20
10062;DHT22;5070;52.382;5.270;2023-04-06T09:51:04;18.30;67.60
10062;DHT22;5070;52.382;5.270;2023-04-06T09:53:37;18.30;65.10
10062;DHT22;5070;52.382;5.270;2023-04-06T09:56:12;18.30;66.80
10062;DHT22;5070;52.382;5.270;2023-04-06T09:58:43;18.30;68.40
10062;DHT22;5070;52.382;5.270;2023-04-06T10:01:15;18.30;68.40
10062;DHT22;5070;52.382;5.270;2023-04-06T10:03:51;18.30;69.70
10062;DHT22;5070;52.382;5.270;2023-04-06T10:06:23;18.30;68.10
10062;DHT22;5070;52.382;5.270;2023-04-06T10:08:52;18.30;67.40
10062;DHT22;5070;52.382;5.270;2023-04-06T10:11:23;18.30;68.60
10062;DHT22;5070;52.382;5.270;2023-04-06T10:13:51;18.30;68.50
10062;DHT22;5070;52.382;5.270;2023-04-06T10:16:19;18.30;67.60
10062;DHT22;5070;52.382;5.270;2023-04-06T10:18:55;18.30;67.90
10062;DHT22;5070;52.382;5.270;2023-04-06T10:21:28;18.30;66.60
10062;DHT22;5070;52.382;5.270;2023-04-06T10:23:59;18.30;67.30
10062;DHT22;5070;52.382;5.270;2023-04-06T10:26:28;18.30;67.10
10062;DHT22;5070;52.382;5.270;2023-04-06T10:29:02;18.30;66.80
10062;DHT22;5070;52.382;5.270;2023-04-06T10:31:31;18.30;67.80
10062;DHT22;5070;52.382;5.270;2023-04-06T10:34:00;18.30;67.70
10062;DHT22;5070;52.382;5.270;2023-04-06T10:36:31;18.30;68.20
10062;DHT22;5070;52.382;5.270;2023-04-06T10:39:04;18.30;68.30
10062;DHT22;5070;52.382;5.270;2023-04-06T10:41:34;18.30;67.50
10062;DHT22;5070;52.382;5.270;2023-04-06T10:44:03;18.30;67.30
10062;DHT22;5070;52.382;5.270;2023-04-06T10:46:33;18.30;67.00
10062;DHT22;5070;52.382;5.270;2023-04-06T10:49:10;18.30;66.80
10062;DHT22;5070;52.382;5.270;2023-04-06T10:51:40;18.30;67.00
10062;DHT22;5070;52.382;5.270;2023-04-06T10:54:08;18.30;67.30
10062;DHT22;5070;52.382;5.270;2023-04-06T10:56:38;18.30;67.90
10062;DHT22;5070;52.382;5.270;2023-04-06T10:59:06;18.30;66.70
10062;DHT22;5070;52.382;5.270;2023-04-06T11:01:38;18.30;68.10
10062;DHT22;5070;52.382;5.270;2023-04-06T11:04:05;18.30;65.30
10062;DHT22;5070;52.382;5.270;2023-04-06T11:06:37;18.30;64.20
10062;DHT22;5070;52.382;5.270;2023-04-06T11:09:05;18.30;66.60
10062;DHT22;5070;52.382;5.270;2023-04-06T11:11:40;18.30;67.10
10062;DHT22;5070;52.382;5.270;2023-04-06T11:14:10;18.30;66.40
10062;DHT22;5070;52.382;5.270;2023-04-06T11:16:37;18.30;66.10
10062;DHT22;5070;52.382;5.270;2023-04-06T11:19:08;18.30;64.60
10062;DHT22;5070;52.382;5.270;2023-04-06T11:21:40;18.30;66.20
10062;DHT22;5070;52.382;5.270;2023-04-06T11:24:11;18.30;66.00
10062;DHT22;5070;52.382;5.270;2023-04-06T11:26:46;18.30;66.90
10062;DHT22;5070;52.382;5.270;2023-04-06T11:29:16;18.30;66.30
10062;DHT22;5070;52.382;5.270;2023-04-06T11:31:46;18.30;67.40
10062;DHT22;5070;52.382;5.270;2023-04-06T11:34:17;18.30;68.10
10062;DHT22;5070;52.382;5.270;2023-04-06T11:36:49;18.30;67.70
10062;DHT22;5070;52.382;5.270;2023-04-06T11:39:27;18.30;67.80
10062;DHT22;5070;52.382;5.270;2023-04-06T11:42:00;18.30;66.70
10062;DHT22;5070;52.382;5.270;2023-04-06T11:44:32;18.30;67.00
10062;DHT22;5070;52.382;5.270;2023-04-06T11:47:05;18.30;67.30
10062;DHT22;5070;52.382;5.270;2023-04-06T11:49:39;18.30;65.20
10062;DHT22;5070;52.382;5.270;2023-04-06T11:52:15;18.30;67.20
10062;DHT22;5070;52.382;5.270;2023-04-06T11:54:46;18.30;66.00
10062;DHT22;5070;52.382;5.270;2023-04-06T11:57:37;18.30;64.80
10062;DHT22;5070;52.382;5.270;2023-04-06T12:00:06;18.20;63.70
10062;DHT22;5070;52.382;5.270;2023-04-06T12:02:34;18.30;64.50
10062;DHT22;5070;52.382;5.270;2023-04-06T12:05:03;18.30;65.30
10062;DHT22;5070;52.382;5.270;2023-04-06T12:07:32;18.30;64.00
10062;DHT22;5070;52.382;5.270;2023-04-06T12:10:01;18.30;64.40
10062;DHT22;5070;52.382;5.270;2023-04-06T12:12:31;18.30;66.70
10062;DHT22;5070;52.382;5.270;2023-04-06T12:15:00;18.30;67.90
10062;DHT22;5070;52.382;5.270;2023-04-06T12:17:30;18.30;68.20
10062;DHT22;5070;52.382;5.270;2023-04-06T12:19:58;18.30;65.90
10062;DHT22;5070;52.382;5.270;2023-04-06T12:22:31;18.40;67.60
10062;DHT22;5070;52.382;5.270;2023-04-06T12:24:59;18.40;67.40
10062;DHT22;5070;52.382;5.270;2023-04-06T12:27:27;18.40;66.10
10062;DHT22;5070;52.382;5.270;2023-04-06T12:29:55;18.40;68.00
10062;DHT22;5070;52.382;5.270;2023-04-06T12:32:24;18.40;68.20
10062;DHT22;5070;52.382;5.270;2023-04-06T12:34:53;18.40;69.10
10062;DHT22;5070;52.382;5.270;2023-04-06T12:37:23;18.40;69.20
10062;DHT22;5070;52.382;5.270;2023-04-06T12:39:52;18.40;68.60
10062;DHT22;5070;52.382;5.270;2023-04-06T12:42:21;18.40;70.10
10062;DHT22;5070;52.382;5.270;2023-04-06T12:44:49;18.40;70.50
10062;DHT22;5070;52.382;5.270;2023-04-06T12:47:17;18.40;71.60
10062;DHT22;5070;52.382;5.270;2023-04-06T12:49:46;18.40;72.00
10062;DHT22;5070;52.382;5.270;2023-04-06T12:52:14;18.50;72.00
10062;DHT22;5070;52.382;5.270;2023-04-06T12:54:42;18.40;72.40
10062;DHT22;5070;52.382;5.270;2023-04-06T12:57:11;18.40;72.90
10062;DHT22;5070;52.382;5.270;2023-04-06T12:59:42;18.50;72.90
10062;DHT22;5070;52.382;5.270;2023-04-06T13:02:11;18.40;72.20
10062;DHT22;5070;52.382;5.270;2023-04-06T13:04:39;18.40;73.60
10062;DHT22;5070;52.382;5.270;2023-04-06T13:07:08;18.40;72.50
10062;DHT22;5070;52.382;5.270;2023-04-06T13:09:36;18.40;72.60
10062;DHT22;5070;52.382;5.270;2023-04-06T13:12:08;18.40;72.00
10062;DHT22;5070;52.382;5.270;2023-04-06T13:14:42;18.40;72.20
10062;DHT22;5070;52.382;5.270;2023-04-06T13:17:10;18.40;71.50
10062;DHT22;5070;52.382;5.270;2023-04-06T13:19:39;18.40;72.20
10062;DHT22;5070;52.382;5.270;2023-04-06T13:22:08;18.40;70.90
10062;DHT22;5070;52.382;5.270;2023-04-06T13:24:36;18.40;71.70
10062;DHT22;5070;52.382;5.270;2023-04-06T13:27:04;18.40;71.60
10062;DHT22;5070;52.382;5.270;2023-04-06T13:29:35;18.40;71.80
10062;DHT22;5070;52.382;5.270;2023-04-06T13:32:04;18.40;71.10
10062;DHT22;5070;52.382;5.270;2023-04-06T13:34:34;18.40;70.80
10062;DHT22;5070;52.382;5.270;2023-04-06T13:37:02;18.40;70.60
10062;DHT22;5070;52.382;5.270;2023-04-06T13:39:32;18.40;70.50
10062;DHT22;5070;52.382;5.270;2023-04-06T13:42:00;18.40;69.70
10062;DHT22;5070;52.382;5.270;2023-04-06T13:44:31;18.50;69.00
10062;DHT22;5070;52.382;5.270;2023-04-06T13:47:01;18.50;70.00
10062;DHT22;5070;52.382;5.270;2023-04-06T13:49:29;18.50;70.00
10062;DHT22;5070;52.382;5.270;2023-04-06T13:51:57;18.50;69.70
10062;DHT22;5070;52.382;5.270;2023-04-06T13:54:26;18.40;69.40
10062;DHT22;5070;52.382;5.270;2023-04-06T13:56:55;18.50;69.60
10062;DHT22;5070;52.382;5.270;2023-04-06T13:59:24;18.50;69.60
10062;DHT22;5070;52.382;5.270;2023-04-06T14:01:52;18.50;71.40
10062;DHT22;5070;52.382;5.270;2023-04-06T14:04:20;18.50;72.00
10062;DHT22;5070;52.382;5.270;2023-04-06T14:06:48;18.60;68.20
10062;DHT22;5070;52.382;5.270;2023-04-06T14:09:17;18.60;69.70
10062;DHT22;5070;52.382;5.270;2023-04-06T14:12:00;18.50;69.60
10062;DHT22;5070;52.382;5.270;2023-04-06T14:14:28;18.50;69.50
10062;DHT22;5070;52.382;5.270;2023-04-06T14:16:56;18.50;69.70
10062;DHT22;5070;52.382;5.270;2023-04-06T14:19:45;18.50;69.90
10062;DHT22;5070;52.382;5.270;2023-04-06T14:22:40;18.50;69.90
10062;DHT22;5070;52.382;5.270;2023-04-06T14:25:09;18.50;69.40
10062;DHT22;5070;52.382;5.270;2023-04-06T14:27:39;18.50;69.00
10062;DHT22;5070;52.382;5.270;2023-04-06T14:30:08;18.50;68.80
10062;DHT22;5070;52.382;5.270;2023-04-06T14:32:38;18.50;68.30
10062;DHT22;5070;52.382;5.270;2023-04-06T14:35:07;18.50;67.90
10062;DHT22;5070;52.382;5.270;2023-04-06T14:37:36;18.50;68.00
10062;DHT22;5070;52.382;5.270;2023-04-06T14:40:08;18.50;68.20
10062;DHT22;5070;52.382;5.270;2023-04-06T14:42:36;18.50;68.10
10062;DHT22;5070;52.382;5.270;2023-04-06T14:45:06;18.50;67.60
10062;DHT22;5070;52.382;5.270;2023-04-06T14:47:34;18.50;67.70
10062;DHT22;5070;52.382;5.270;2023-04-06T14:50:03;18.50;67.90
10062;DHT22;5070;52.382;5.270;2023-04-06T14:52:31;18.50;68.00
10062;DHT22;5070;52.382;5.270;2023-04-06T14:54:59;18.50;67.90
10062;DHT22;5070;52.382;5.270;2023-04-06T14:57:27;18.50;67.80
10062;DHT22;5070;52.382;5.270;2023-04-06T14:59:55;18.50;67.80
10062;DHT22;5070;52.382;5.270;2023-04-06T15:02:27;18.50;67.80
10062;DHT22;5070;52.382;5.270;2023-04-06T15:04:55;18.50;67.70
10062;DHT22;5070;52.382;5.270;2023-04-06T15:07:24;18.50;68.40
10062;DHT22;5070;52.382;5.270;2023-04-06T15:09:58;18.50;67.80
10062;DHT22;5070;52.382;5.270;2023-04-06T15:12:26;18.50;67.80
10062;DHT22;5070;52.382;5.270;2023-04-06T15:14:56;18.40;68.00
10062;DHT22;5070;52.382;5.270;2023-04-06T15:17:28;18.40;68.10
10062;DHT22;5070;52.382;5.270;2023-04-06T15:19:59;18.40;68.10
10062;DHT22;5070;52.382;5.270;2023-04-06T15:22:28;18.40;68.00
10062;DHT22;5070;52.382;5.270;2023-04-06T15:25:00;18.40;68.40
10062;DHT22;5070;52.382;5.270;2023-04-06T15:27:28;18.40;68.60
10062;DHT22;5070;52.382;5.270;2023-04-06T15:29:56;18.40;69.40
10062;DHT22;5070;52.382;5.270;2023-04-06T15:32:25;18.40;71.50
10062;DHT22;5070;52.382;5.270;2023-04-06T15:34:59;18.40;72.70
10062;DHT22;5070;52.382;5.270;2023-04-06T15:37:28;18.50;73.20
10062;DHT22;5070;52.382;5.270;2023-04-06T15:39:57;18.50;76.40
10062;DHT22;5070;52.382;5.270;2023-04-06T15:42:36;18.50;77.50
10062;DHT22;5070;52.382;5.270;2023-04-06T15:45:04;18.50;78.30
10062;DHT22;5070;52.382;5.270;2023-04-06T15:47:33;18.50;77.60
10062;DHT22;5070;52.382;5.270;2023-04-06T15:50:04;18.50;77.60
10062;DHT22;5070;52.382;5.270;2023-04-06T15:52:33;18.50;76.60
10062;DHT22;5070;52.382;5.270;2023-04-06T15:55:05;18.50;77.10
10062;DHT22;5070;52.382;5.270;2023-04-06T15:57:34;18.50;77.30
10062;DHT22;5070;52.382;5.270;2023-04-06T16:00:03;18.50;76.70
10062;DHT22;5070;52.382;5.270;2023-04-06T16:02:35;18.50;76.60
10062;DHT22;5070;52.382;5.270;2023-04-06T16:05:04;18.50;76.90
10062;DHT22;5070;52.382;5.270;2023-04-06T16:07:33;18.50;76.90